sensor_id;sensor_type;location;lat;lon;timestamp;temperature;humidity
2751;DHT22;1383;48.362;10.908;2023-04-01T00:01:06;9.00;60.70
2751;DHT22;1383;48.362;10.908;2023-04-01T00:03:34;9.00;60.90
2751;DHT22;1383;48.362;10.908;2023-04-01T00:06:01;9.00;61.00
2751;DHT22;1383;48.362;10.908;2023-04-01T00:08:29;9.00;60.70
2751;DHT22;1383;48.362;10.908;2023-04-01T00:10:57;9.00;61.20
2751;DHT22;1383;48.362;10.908;2023-04-01T00:13:26;9.00;60.70
2751;DHT22;1383;48.362;10.908;2023-04-01T00:15:55;9.00;61.50
2751;DHT22;1383;48.362;10.908;2023-04-01T00:18:23;9.00;62.50
2751;DHT22;1383;48.362;10.908;2023-04-01T00:20:52;9.00;62.60
2751;DHT22;1383;48.362;10.908;2023-04-01T00:23:19;9.00;62.50
2751;DHT22;1383;48.362;10.908;2023-04-01T00:25:47;9.00;62.80
2751;DHT22;1383;48.362;10.908;2023-04-01T00:28:19;9.00;62.40
2751;DHT22;1383;48.362;10.908;2023-04-01T00:30:46;9.10;61.70
2751;DHT22;1383;48.362;10.908;2023-04-01T00:33:13;9.10;60.80
2751;DHT22;1383;48.362;10.908;2023-04-01T00:35:40;9.10;61.20
2751;DHT22;1383;48.362;10.908;2023-04-01T00:38:08;9.10;60.80
2751;DHT22;1383;48.362;10.908;2023-04-01T00:40:38;9.10;60.60
2751;DHT22;1383;48.362;10.908;2023-04-01T00:43:15;9.20;60.70
2751;DHT22;1383;48.362;10.908;2023-04-01T00:45:45;9.10;60.20
2751;DHT22;1383;48.362;10.908;2023-04-01T00:48:17;9.10;60.60
2751;DHT22;1383;48.362;10.908;2023-04-01T00:50:52;9.10;60.00
2751;DHT22;1383;48.362;10.908;2023-04-01T00:53:21;9.10;59.90
2751;DHT22;1383;48.362;10.908;2023-04-01T00:56:12;9.00;60.10
2751;DHT22;1383;48.362;10.908;2023-04-01T00:58:51;9.00;60.40
2751;DHT22;1383;48.362;10.908;2023-04-01T01:01:22;9.00;60.00
2751;DHT22;1383;48.362;10.908;2023-04-01T01:03:49;9.10;59.90
2751;DHT22;1383;48.362;10.908;2023-04-01T01:20:33;9.10;59.20
2751;DHT22;1383;48.362;10.908;2023-04-01T01:28:57;9.00;59.70
2751;DHT22;1383;48.362;10.908;2023-04-01T01:34:36;9.00;60.00
2751;DHT22;1383;48.362;10.908;2023-04-01T01:37:11;9.00;59.90
2751;DHT22;1383;48.362;10.908;2023-04-01T01:39:41;9.00;60.20
2751;DHT22;1383;48.362;10.908;2023-04-01T01:42:11;9.00;59.60
2751;DHT22;1383;48.362;10.908;2023-04-01T01:44:41;9.00;59.80
2751;DHT22;1383;48.362;10.908;2023-04-01T01:47:10;9.00;59.40
2751;DHT22;1383;48.362;10.908;2023-04-01T01:49:39;8.90;60.00
2751;DHT22;1383;48.362;10.908;2023-04-01T01:52:06;8.90;60.20
2751;DHT22;1383;48.362;10.908;2023-04-01T01:54:33;8.90;60.50
2751;DHT22;1383;48.362;10.908;2023-04-01T01:57:09;8.80;60.60
2751;DHT22;1383;48.362;10.908;2023-04-01T01:59:38;8.80;61.00
2751;DHT22;1383;48.362;10.908;2023-04-01T02:02:09;8.70;61.30
2751;DHT22;1383;48.362;10.908;2023-04-01T02:04:37;8.70;61.50
2751;DHT22;1383;48.362;10.908;2023-04-01T02:07:28;8.60;61.40
2751;DHT22;1383;48.362;10.908;2023-04-01T02:09:58;8.60;62.10
2751;DHT22;1383;48.362;10.908;2023-04-01T02:12:25;8.50;62.10
2751;DHT22;1383;48.362;10.908;2023-04-01T02:14:58;8.60;62.50
2751;DHT22;1383;48.362;10.908;2023-04-01T02:17:29;8.60;62.80
2751;DHT22;1383;48.362;10.908;2023-04-01T02:20:06;8.60;62.60
2751;DHT22;1383;48.362;10.908;2023-04-01T02:22:38;8.60;62.30
2751;DHT22;1383;48.362;10.908;2023-04-01T02:25:13;8.60;62.20
2751;DHT22;1383;48.362;10.908;2023-04-01T02:27:43;8.60;62.30
2751;DHT22;1383;48.362;10.908;2023-04-01T02:30:12;8.60;62.30
2751;DHT22;1383;48.362;10.908;2023-04-01T02:32:40;8.50;62.60
2751;DHT22;1383;48.362;10.908;2023-04-01T02:35:13;8.40;62.90
2751;DHT22;1383;48.362;10.908;2023-04-01T02:37:40;8.40;63.20
2751;DHT22;1383;48.362;10.908;2023-04-01T02:40:11;8.40;63.50
2751;DHT22;1383;48.362;10.908;2023-04-01T02:42:38;8.40;63.60
2751;DHT22;1383;48.362;10.908;2023-04-01T02:45:06;8.40;63.70
2751;DHT22;1383;48.362;10.908;2023-04-01T02:47:33;8.40;63.80
2751;DHT22;1383;48.362;10.908;2023-04-01T02:50:00;8.40;63.40
2751;DHT22;1383;48.362;10.908;2023-04-01T02:52:28;8.40;63.70
2751;DHT22;1383;48.362;10.908;2023-04-01T02:54:56;8.30;63.40
2751;DHT22;1383;48.362;10.908;2023-04-01T02:57:24;8.30;63.30
2751;DHT22;1383;48.362;10.908;2023-04-01T02:59:51;8.40;63.30
2751;DHT22;1383;48.362;10.908;2023-04-01T03:02:18;8.30;63.10
2751;DHT22;1383;48.362;10.908;2023-04-01T03:04:45;8.20;63.20
2751;DHT22;1383;48.362;10.908;2023-04-01T03:07:12;8.20;63.60
2751;DHT22;1383;48.362;10.908;2023-04-01T03:09:39;8.20;63.80
2751;DHT22;1383;48.362;10.908;2023-04-01T03:12:06;8.20;63.80
2751;DHT22;1383;48.362;10.908;2023-04-01T03:14:33;8.20;62.90
2751;DHT22;1383;48.362;10.908;2023-04-01T03:17:00;8.10;62.60
2751;DHT22;1383;48.362;10.908;2023-04-01T03:19:27;8.10;63.00
2751;DHT22;1383;48.362;10.908;2023-04-01T03:21:54;8.10;63.10
2751;DHT22;1383;48.362;10.908;2023-04-01T03:24:21;8.10;62.60
2751;DHT22;1383;48.362;10.908;2023-04-01T03:26:47;8.10;62.80
2751;DHT22;1383;48.362;10.908;2023-04-01T03:29:15;8.10;62.90
2751;DHT22;1383;48.362;10.908;2023-04-01T03:31:42;8.10;62.40
2751;DHT22;1383;48.362;10.908;2023-04-01T03:34:24;8.10;62.70
2751;DHT22;1383;48.362;10.908;2023-04-01T03:36:52;8.20;62.00
2751;DHT22;1383;48.362;10.908;2023-04-01T03:39:18;8.20;62.10
2751;DHT22;1383;48.362;10.908;2023-04-01T03:41:46;8.20;62.20
2751;DHT22;1383;48.362;10.908;2023-04-01T03:44:13;8.20;62.20
2751;DHT22;1383;48.362;10.908;2023-04-01T03:46:40;8.20;62.00
2751;DHT22;1383;48.362;10.908;2023-04-01T03:49:09;8.20;61.70
2751;DHT22;1383;48.362;10.908;2023-04-01T03:51:42;8.20;62.00
2751;DHT22;1383;48.362;10.908;2023-04-01T03:54:09;8.20;62.30
2751;DHT22;1383;48.362;10.908;2023-04-01T03:56:37;8.20;62.40
2751;DHT22;1383;48.362;10.908;2023-04-01T03:59:06;8.30;62.30
2751;DHT22;1383;48.362;10.908;2023-04-01T04:01:33;8.20;61.90
2751;DHT22;1383;48.362;10.908;2023-04-01T04:04:00;8.30;62.10
2751;DHT22;1383;48.362;10.908;2023-04-01T04:06:27;8.30;62.10
2751;DHT22;1383;48.362;10.908;2023-04-01T04:08:54;8.30;62.80
2751;DHT22;1383;48.362;10.908;2023-04-01T04:11:22;8.30;63.40
2751;DHT22;1383;48.362;10.908;2023-04-01T04:13:49;8.30;63.80
2751;DHT22;1383;48.362;10.908;2023-04-01T04:16:17;8.30;63.80
2751;DHT22;1383;48.362;10.908;2023-04-01T04:18:44;8.30;64.30
2751;DHT22;1383;48.362;10.908;2023-04-01T04:21:15;8.30;64.30
2751;DHT22;1383;48.362;10.908;2023-04-01T04:23:42;8.30;64.70
2751;DHT22;1383;48.362;10.908;2023-04-01T04:26:11;8.30;66.60
2751;DHT22;1383;48.362;10.908;2023-04-01T04:28:39;8.30;68.70
2751;DHT22;1383;48.362;10.908;2023-04-01T04:31:06;8.30;70.00
2751;DHT22;1383;48.362;10.908;2023-04-01T04:33:34;8.30;70.60
2751;DHT22;1383;48.362;10.908;2023-04-01T04:36:02;8.30;71.20
2751;DHT22;1383;48.362;10.908;2023-04-01T04:38:29;8.20;71.50
2751;DHT22;1383;48.362;10.908;2023-04-01T04:40:56;8.30;71.90
2751;DHT22;1383;48.362;10.908;2023-04-01T04:43:23;8.30;71.80
2751;DHT22;1383;48.362;10.908;2023-04-01T04:45:50;8.20;71.10
2751;DHT22;1383;48.362;10.908;2023-04-01T04:48:17;8.20;70.90
2751;DHT22;1383;48.362;10.908;2023-04-01T04:50:48;8.30;70.70
2751;DHT22;1383;48.362;10.908;2023-04-01T04:53:17;8.30;69.20
2751;DHT22;1383;48.362;10.908;2023-04-01T04:55:49;8.30;68.70
2751;DHT22;1383;48.362;10.908;2023-04-01T04:58:17;8.30;69.70
2751;DHT22;1383;48.362;10.908;2023-04-01T05:00:44;8.30;69.30
2751;DHT22;1383;48.362;10.908;2023-04-01T05:03:12;8.40;68.50
2751;DHT22;1383;48.362;10.908;2023-04-01T05:05:39;8.40;67.80
2751;DHT22;1383;48.362;10.908;2023-04-01T05:08:06;8.30;67.50
2751;DHT22;1383;48.362;10.908;2023-04-01T05:10:33;8.40;67.50
2751;DHT22;1383;48.362;10.908;2023-04-01T05:13:00;8.30;67.80
2751;DHT22;1383;48.362;10.908;2023-04-01T05:15:27;8.30;67.00
2751;DHT22;1383;48.362;10.908;2023-04-01T05:17:53;8.30;67.10
2751;DHT22;1383;48.362;10.908;2023-04-01T05:20:20;8.30;66.50
2751;DHT22;1383;48.362;10.908;2023-04-01T05:22:47;8.40;66.30
2751;DHT22;1383;48.362;10.908;2023-04-01T05:25:14;8.40;65.50
2751;DHT22;1383;48.362;10.908;2023-04-01T05:27:41;8.50;65.30
2751;DHT22;1383;48.362;10.908;2023-04-01T05:30:08;8.50;64.60
2751;DHT22;1383;48.362;10.908;2023-04-01T05:32:35;8.60;64.20
2751;DHT22;1383;48.362;10.908;2023-04-01T05:35:02;8.50;63.90
2751;DHT22;1383;48.362;10.908;2023-04-01T05:37:28;8.60;63.60
2751;DHT22;1383;48.362;10.908;2023-04-01T05:39:55;8.60;63.40
2751;DHT22;1383;48.362;10.908;2023-04-01T05:42:22;8.60;63.00
2751;DHT22;1383;48.362;10.908;2023-04-01T05:44:49;8.60;62.60
2751;DHT22;1383;48.362;10.908;2023-04-01T05:47:16;8.60;62.00
2751;DHT22;1383;48.362;10.908;2023-04-01T05:49:42;8.60;62.10
2751;DHT22;1383;48.362;10.908;2023-04-01T05:52:09;8.70;61.50
2751;DHT22;1383;48.362;10.908;2023-04-01T05:54:36;8.60;61.80
2751;DHT22;1383;48.362;10.908;2023-04-01T05:57:03;8.60;61.60
2751;DHT22;1383;48.362;10.908;2023-04-01T05:59:30;8.60;61.70
2751;DHT22;1383;48.362;10.908;2023-04-01T06:01:58;8.60;61.40
2751;DHT22;1383;48.362;10.908;2023-04-01T06:04:31;8.60;61.80
2751;DHT22;1383;48.362;10.908;2023-04-01T06:06:59;8.60;61.60
2751;DHT22;1383;48.362;10.908;2023-04-01T06:09:28;8.70;61.50
2751;DHT22;1383;48.362;10.908;2023-04-01T06:26:21;9.00;58.80
2751;DHT22;1383;48.362;10.908;2023-04-01T06:31:33;9.10;58.30
2751;DHT22;1383;48.362;10.908;2023-04-01T06:39:59;9.50;55.30
2751;DHT22;1383;48.362;10.908;2023-04-01T06:45:49;9.70;54.00
2751;DHT22;1383;48.362;10.908;2023-04-01T06:51:23;9.70;53.50
2751;DHT22;1383;48.362;10.908;2023-04-01T06:59:45;10.00;51.70
2751;DHT22;1383;48.362;10.908;2023-04-01T07:02:41;10.20;50.00
2751;DHT22;1383;48.362;10.908;2023-04-01T07:05:11;10.40;50.20
2751;DHT22;1383;48.362;10.908;2023-04-01T07:07:50;10.70;48.90
2751;DHT22;1383;48.362;10.908;2023-04-01T07:10:25;11.00;47.80
2751;DHT22;1383;48.362;10.908;2023-04-01T07:12:56;11.40;46.80
2751;DHT22;1383;48.362;10.908;2023-04-01T07:15:30;11.30;44.30
2751;DHT22;1383;48.362;10.908;2023-04-01T07:18:30;11.20;44.50
2751;DHT22;1383;48.362;10.908;2023-04-01T07:20:54;11.20;45.00
2751;DHT22;1383;48.362;10.908;2023-04-01T07:23:24;11.10;44.40
2751;DHT22;1383;48.362;10.908;2023-04-01T07:25:56;11.20;44.90
2751;DHT22;1383;48.362;10.908;2023-04-01T07:28:30;11.20;44.60
2751;DHT22;1383;48.362;10.908;2023-04-01T07:31:00;11.20;44.50
2751;DHT22;1383;48.362;10.908;2023-04-01T07:33:45;11.20;44.50
2751;DHT22;1383;48.362;10.908;2023-04-01T07:36:29;11.30;44.40
2751;DHT22;1383;48.362;10.908;2023-04-01T07:45:01;11.10;43.70
2751;DHT22;1383;48.362;10.908;2023-04-01T07:50:35;11.00;44.00
2751;DHT22;1383;48.362;10.908;2023-04-01T07:56:03;10.90;45.00
2751;DHT22;1383;48.362;10.908;2023-04-01T08:08:06;10.90;44.80
2751;DHT22;1383;48.362;10.908;2023-04-01T08:23:24;11.00;44.00
2751;DHT22;1383;48.362;10.908;2023-04-01T08:26:10;11.10;43.60
2751;DHT22;1383;48.362;10.908;2023-04-01T08:28:51;11.10;43.70
2751;DHT22;1383;48.362;10.908;2023-04-01T08:34:21;11.30;43.60
2751;DHT22;1383;48.362;10.908;2023-04-01T08:37:07;11.60;42.20
2751;DHT22;1383;48.362;10.908;2023-04-01T08:39:49;11.80;41.70
2751;DHT22;1383;48.362;10.908;2023-04-01T08:42:40;11.90;41.30
2751;DHT22;1383;48.362;10.908;2023-04-01T08:56:57;12.20;40.30
2751;DHT22;1383;48.362;10.908;2023-04-01T08:59:50;12.00;40.30
2751;DHT22;1383;48.362;10.908;2023-04-01T09:02:36;12.10;40.50
2751;DHT22;1383;48.362;10.908;2023-04-01T09:11:28;12.10;39.50
2751;DHT22;1383;48.362;10.908;2023-04-01T09:22:10;12.20;40.50
2751;DHT22;1383;48.362;10.908;2023-04-01T09:27:32;12.30;39.10
2751;DHT22;1383;48.362;10.908;2023-04-01T09:36:18;12.40;39.90
2751;DHT22;1383;48.362;10.908;2023-04-01T09:38:57;12.50;39.60
2751;DHT22;1383;48.362;10.908;2023-04-01T09:41:36;12.60;39.90
2751;DHT22;1383;48.362;10.908;2023-04-01T09:44:27;12.70;39.40
2751;DHT22;1383;48.362;10.908;2023-04-01T09:50:52;12.70;41.00
2751;DHT22;1383;48.362;10.908;2023-04-01T10:10:33;12.20;40.60
2751;DHT22;1383;48.362;10.908;2023-04-01T10:15:53;12.00;44.00
2751;DHT22;1383;48.362;10.908;2023-04-01T10:18:40;11.80;45.00
2751;DHT22;1383;48.362;10.908;2023-04-01T10:21:16;11.60;47.10
2751;DHT22;1383;48.362;10.908;2023-04-01T10:23:54;11.40;47.00
2751;DHT22;1383;48.362;10.908;2023-04-01T10:41:28;11.20;52.60
2751;DHT22;1383;48.362;10.908;2023-04-01T11:07:09;9.90;62.70
2751;DHT22;1383;48.362;10.908;2023-04-01T11:15:31;9.80;65.80
2751;DHT22;1383;48.362;10.908;2023-04-01T11:21:37;9.50;68.60
2751;DHT22;1383;48.362;10.908;2023-04-01T11:27:23;9.50;69.00
2751;DHT22;1383;48.362;10.908;2023-04-01T11:29:58;9.40;70.50
2751;DHT22;1383;48.362;10.908;2023-04-01T11:44:21;9.40;72.90
2751;DHT22;1383;48.362;10.908;2023-04-01T11:57:42;9.70;68.80
2751;DHT22;1383;48.362;10.908;2023-04-01T12:03:21;9.90;70.00
2751;DHT22;1383;48.362;10.908;2023-04-01T12:08:41;10.00;66.30
2751;DHT22;1383;48.362;10.908;2023-04-01T12:11:38;9.90;68.10
2751;DHT22;1383;48.362;10.908;2023-04-01T12:14:13;9.90;66.40
2751;DHT22;1383;48.362;10.908;2023-04-01T12:19:43;10.00;65.00
2751;DHT22;1383;48.362;10.908;2023-04-01T12:23:19;10.00;65.50
2751;DHT22;1383;48.362;10.908;2023-04-01T12:30:53;10.00;68.30
2751;DHT22;1383;48.362;10.908;2023-04-01T12:33:31;10.10;67.50
2751;DHT22;1383;48.362;10.908;2023-04-01T12:36:31;10.10;66.20
2751;DHT22;1383;48.362;10.908;2023-04-01T12:39:14;10.20;66.20
2751;DHT22;1383;48.362;10.908;2023-04-01T12:41:51;10.20;68.00
2751;DHT22;1383;48.362;10.908;2023-04-01T12:53:07;9.90;69.60
2751;DHT22;1383;48.362;10.908;2023-04-01T12:55:43;9.90;72.30
2751;DHT22;1383;48.362;10.908;2023-04-01T12:58:29;9.90;71.80
2751;DHT22;1383;48.362;10.908;2023-04-01T13:04:30;9.90;73.90
2751;DHT22;1383;48.362;10.908;2023-04-01T13:15:37;10.30;70.50
2751;DHT22;1383;48.362;10.908;2023-04-01T13:18:21;10.30;72.10
2751;DHT22;1383;48.362;10.908;2023-04-01T13:20:54;10.50;73.20
2751;DHT22;1383;48.362;10.908;2023-04-01T13:23:49;10.50;69.20
2751;DHT22;1383;48.362;10.908;2023-04-01T13:27:32;10.60;70.20
2751;DHT22;1383;48.362;10.908;2023-04-01T13:29:31;10.80;66.70
2751;DHT22;1383;48.362;10.908;2023-04-01T13:32:10;10.70;64.30
2751;DHT22;1383;48.362;10.908;2023-04-01T13:35:05;10.80;65.20
2751;DHT22;1383;48.362;10.908;2023-04-01T13:43:10;11.00;62.20
2751;DHT22;1383;48.362;10.908;2023-04-01T13:46:05;11.00;59.80
2751;DHT22;1383;48.362;10.908;2023-04-01T13:54:12;11.30;58.70
2751;DHT22;1383;48.362;10.908;2023-04-01T14:04:58;11.40;57.20
2751;DHT22;1383;48.362;10.908;2023-04-01T14:11:00;11.60;56.70
2751;DHT22;1383;48.362;10.908;2023-04-01T14:14:04;11.70;57.00
2751;DHT22;1383;48.362;10.908;2023-04-01T14:16:49;11.60;54.90
2751;DHT22;1383;48.362;10.908;2023-04-01T14:19:44;11.60;55.90
2751;DHT22;1383;48.362;10.908;2023-04-01T14:22:53;11.60;57.10
2751;DHT22;1383;48.362;10.908;2023-04-01T14:28:39;11.50;57.80
2751;DHT22;1383;48.362;10.908;2023-04-01T14:39:56;11.10;61.70
2751;DHT22;1383;48.362;10.908;2023-04-01T14:42:44;11.10;62.10
2751;DHT22;1383;48.362;10.908;2023-04-01T14:45:40;11.10;62.20
2751;DHT22;1383;48.362;10.908;2023-04-01T14:48:52;11.00;61.30
2751;DHT22;1383;48.362;10.908;2023-04-01T14:51:35;11.00;63.10
2751;DHT22;1383;48.362;10.908;2023-04-01T14:54:13;11.00;63.20
2751;DHT22;1383;48.362;10.908;2023-04-01T14:57:10;11.00;63.70
2751;DHT22;1383;48.362;10.908;2023-04-01T15:10:59;11.50;58.90
2751;DHT22;1383;48.362;10.908;2023-04-01T15:38:06;11.40;54.10
2751;DHT22;1383;48.362;10.908;2023-04-01T15:54:22;11.30;52.90
2751;DHT22;1383;48.362;10.908;2023-04-01T15:56:53;11.30;52.00
2751;DHT22;1383;48.362;10.908;2023-04-01T15:59:52;11.10;51.50
2751;DHT22;1383;48.362;10.908;2023-04-01T16:19:51;11.00;51.50
2751;DHT22;1383;48.362;10.908;2023-04-01T16:22:20;11.10;51.90
2751;DHT22;1383;48.362;10.908;2023-04-01T16:30:01;11.00;52.00
2751;DHT22;1383;48.362;10.908;2023-04-01T16:32:44;10.90;52.50
2751;DHT22;1383;48.362;10.908;2023-04-01T16:38:01;11.00;52.60
2751;DHT22;1383;48.362;10.908;2023-04-01T16:43:49;11.00;52.60
2751;DHT22;1383;48.362;10.908;2023-04-01T16:46:28;10.90;52.50
2751;DHT22;1383;48.362;10.908;2023-04-01T16:59:40;10.60;52.90
2751;DHT22;1383;48.362;10.908;2023-04-01T17:02:14;10.60;53.30
2751;DHT22;1383;48.362;10.908;2023-04-01T17:12:51;10.40;53.70
2751;DHT22;1383;48.362;10.908;2023-04-01T17:15:46;10.40;53.80
2751;DHT22;1383;48.362;10.908;2023-04-01T17:26:51;10.30;54.50
2751;DHT22;1383;48.362;10.908;2023-04-01T17:32:28;10.30;55.00
2751;DHT22;1383;48.362;10.908;2023-04-01T17:35:48;10.30;55.50
2751;DHT22;1383;48.362;10.908;2023-04-01T17:54:52;10.20;55.30
2751;DHT22;1383;48.362;10.908;2023-04-01T18:05:35;10.30;55.40
2751;DHT22;1383;48.362;10.908;2023-04-01T18:16:23;10.20;55.30
2751;DHT22;1383;48.362;10.908;2023-04-01T18:19:01;10.20;55.30
2751;DHT22;1383;48.362;10.908;2023-04-01T18:21:48;10.10;55.70
2751;DHT22;1383;48.362;10.908;2023-04-01T18:24:33;10.10;55.70
2751;DHT22;1383;48.362;10.908;2023-04-01T18:27:24;10.10;55.80
2751;DHT22;1383;48.362;10.908;2023-04-01T18:30:05;10.10;55.50
2751;DHT22;1383;48.362;10.908;2023-04-01T18:32:54;10.00;55.80
2751;DHT22;1383;48.362;10.908;2023-04-01T18:35:50;10.10;55.70
2751;DHT22;1383;48.362;10.908;2023-04-01T18:38:27;10.10;55.40
2751;DHT22;1383;48.362;10.908;2023-04-01T18:47:03;10.10;54.10
2751;DHT22;1383;48.362;10.908;2023-04-01T18:52:42;10.20;53.60
2751;DHT22;1383;48.362;10.908;2023-04-01T18:57:49;10.20;52.70
2751;DHT22;1383;48.362;10.908;2023-04-01T19:00:28;10.20;52.80
2751;DHT22;1383;48.362;10.908;2023-04-01T19:05:56;10.20;52.20
2751;DHT22;1383;48.362;10.908;2023-04-01T19:11:09;10.30;51.30
2751;DHT22;1383;48.362;10.908;2023-04-01T19:16:12;10.30;51.70
2751;DHT22;1383;48.362;10.908;2023-04-01T19:21:41;10.20;51.60
2751;DHT22;1383;48.362;10.908;2023-04-01T19:33:19;10.20;52.70
2751;DHT22;1383;48.362;10.908;2023-04-01T19:36:11;10.10;53.40
2751;DHT22;1383;48.362;10.908;2023-04-01T19:38:41;10.10;53.60
2751;DHT22;1383;48.362;10.908;2023-04-01T19:44:22;10.10;54.20
2751;DHT22;1383;48.362;10.908;2023-04-01T19:52:40;10.00;54.40
2751;DHT22;1383;48.362;10.908;2023-04-01T19:56:23;10.10;54.30
2751;DHT22;1383;48.362;10.908;2023-04-01T20:00:58;10.10;54.30
2751;DHT22;1383;48.362;10.908;2023-04-01T20:03:28;10.00;54.20
2751;DHT22;1383;48.362;10.908;2023-04-01T20:06:11;10.00;54.40
2751;DHT22;1383;48.362;10.908;2023-04-01T20:11:52;10.00;54.80
2751;DHT22;1383;48.362;10.908;2023-04-01T20:19:43;9.90;55.40
2751;DHT22;1383;48.362;10.908;2023-04-01T20:24:52;9.90;55.60
2751;DHT22;1383;48.362;10.908;2023-04-01T20:27:31;9.90;55.60
2751;DHT22;1383;48.362;10.908;2023-04-01T20:35:40;9.90;56.00
2751;DHT22;1383;48.362;10.908;2023-04-01T20:43:52;9.80;56.60
2751;DHT22;1383;48.362;10.908;2023-04-01T20:55:24;9.70;57.10
2751;DHT22;1383;48.362;10.908;2023-04-01T21:03:06;9.60;57.70
2751;DHT22;1383;48.362;10.908;2023-04-01T21:13:58;9.60;57.50
2751;DHT22;1383;48.362;10.908;2023-04-01T21:16:49;9.60;57.60
2751;DHT22;1383;48.362;10.908;2023-04-01T21:22:00;9.60;58.10
2751;DHT22;1383;48.362;10.908;2023-04-01T21:27:42;9.60;58.10
2751;DHT22;1383;48.362;10.908;2023-04-01T21:30:25;9.70;57.90
2751;DHT22;1383;48.362;10.908;2023-04-01T21:36:30;9.70;57.70
2751;DHT22;1383;48.362;10.908;2023-04-01T21:47:30;9.60;58.30
2751;DHT22;1383;48.362;10.908;2023-04-01T21:53:19;9.60;59.20
2751;DHT22;1383;48.362;10.908;2023-04-01T21:59:02;9.60;58.90
2751;DHT22;1383;48.362;10.908;2023-04-01T22:10:44;9.30;60.00
2751;DHT22;1383;48.362;10.908;2023-04-01T22:13:23;9.30;60.50
2751;DHT22;1383;48.362;10.908;2023-04-01T22:16:33;9.30;61.10
2751;DHT22;1383;48.362;10.908;2023-04-01T22:22:18;9.20;61.60
2751;DHT22;1383;48.362;10.908;2023-04-01T22:27:49;9.20;61.90
2751;DHT22;1383;48.362;10.908;2023-04-01T22:33:19;9.10;62.60
2751;DHT22;1383;48.362;10.908;2023-04-01T22:41:25;9.00;63.10
2751;DHT22;1383;48.362;10.908;2023-04-01T22:43:58;8.90;63.20
2751;DHT22;1383;48.362;10.908;2023-04-01T22:46:43;8.90;63.90
2751;DHT22;1383;48.362;10.908;2023-04-01T22:49:23;8.90;63.90
2751;DHT22;1383;48.362;10.908;2023-04-01T22:52:01;8.90;64.00
2751;DHT22;1383;48.362;10.908;2023-04-01T22:55:16;8.80;64.30
2751;DHT22;1383;48.362;10.908;2023-04-01T22:57:40;8.80;64.40
2751;DHT22;1383;48.362;10.908;2023-04-01T23:03:21;8.80;63.90
2751;DHT22;1383;48.362;10.908;2023-04-01T23:05:56;8.70;63.70
2751;DHT22;1383;48.362;10.908;2023-04-01T23:08:54;8.70;64.30
2751;DHT22;1383;48.362;10.908;2023-04-01T23:11:43;8.70;64.30
2751;DHT22;1383;48.362;10.908;2023-04-01T23:33:29;8.90;61.60
2751;DHT22;1383;48.362;10.908;2023-04-01T23:36:22;8.90;61.30
2751;DHT22;1383;48.362;10.908;2023-04-01T23:38:50;8.90;61.50
2751;DHT22;1383;48.362;10.908;2023-04-01T23:41:22;8.90;61.30
2751;DHT22;1383;48.362;10.908;2023-04-01T23:44:02;8.90;62.00
2751;DHT22;1383;48.362;10.908;2023-04-01T23:46:30;8.90;61.20
2751;DHT22;1383;48.362;10.908;2023-04-01T23:49:01;8.90;61.20
2751;DHT22;1383;48.362;10.908;2023-04-01T23:51:35;8.90;61.20
2751;DHT22;1383;48.362;10.908;2023-04-01T23:54:23;8.90;60.90
2751;DHT22;1383;48.362;10.908;2023-04-01T23:56:55;8.90;60.90
2751;DHT22;1383;48.362;10.908;2023-04-01T23:59:34;8.90;60.60
